Time;durP1;ratioP1;P1;durP2;ratioP2;P2;SDS_P1;SDS_P2;PMS_P1;PMS_P2;Temp;Humidity;BMP_temperature;BMP_pressure;BME280_temperature;BME280_humidity;BME280_pressure;Samples;Min_cycle;Max_cycle;Signal;HPM_P1;HPM_P2
2022/07/09 00:02:29;;;;;;;8.32;4.85;;;;;;;;;;8435736;28;20044;-93
2022/07/09 00:06:34;;;;;;;7.45;5.07;;;;;;;;;;8435696;28;20507;-94
2022/07/09 00:10:39;;;;;;;8.85;5.13;;;;;;;;;;8435507;28;20048;-93
2022/07/09 00:14:42;;;;;;;9.32;5.00;;;;;;;;;;8435709;28;20078;-95
2022/07/09 00:18:47;;;;;;;10.25;4.80;;;;;;;;;;8435358;28;20047;-95
2022/07/09 00:22:54;;;;;;;9.82;4.80;;;;;;;;;;8435422;28;20044;-94
2022/07/09 00:31:16;;;;;;;9.85;4.72;;;;;;;;;;8432309;28;20063;-94
2022/07/09 00:35:21;;;;;;;11.73;5.70;;;;;;;;;;8418563;28;20043;-93
2022/07/09 00:39:30;;;;;;;8.18;4.78;;;;;;;;;;8435678;28;20115;-94
2022/07/09 00:43:35;;;;;;;7.10;4.82;;;;;;;;;;8435282;28;20040;-94
2022/07/09 00:47:39;;;;;;;13.10;5.20;;;;;;;;;;8436563;28;20048;-95
2022/07/09 00:51:43;;;;;;;8.88;5.20;;;;;;;;;;8434673;28;20044;-93
2022/07/09 00:55:50;;;;;;;10.25;4.93;;;;;;;;;;8439301;28;20044;-93
2022/07/09 00:59:55;;;;;;;9.45;4.88;;;;;;;;;;8627086;22;20053;-91
2022/07/09 01:03:58;;;;;;;7.43;5.28;;;;;;;;;;8398443;28;20052;-89
2022/07/09 01:08:03;;;;;;;9.57;4.95;;;;;;;;;;8398367;28;20048;-89
2022/07/09 01:12:10;;;;;;;11.02;5.22;;;;;;;;;;8378676;28;20048;-91
2022/07/09 01:16:17;;;;;;;8.98;4.75;;;;;;;;;;8380966;28;20472;-90
2022/07/09 01:20:26;;;;;;;10.48;5.65;;;;;;;;;;8376621;28;20037;-92
2022/07/09 01:24:29;;;;;;;9.45;5.15;;;;;;;;;;8370837;28;20048;-90
2022/07/09 01:28:35;;;;;;;12.30;5.40;;;;;;;;;;8387927;28;20578;-89
2022/07/09 01:32:38;;;;;;;10.43;5.30;;;;;;;;;;8370138;28;20484;-91
2022/07/09 01:36:47;;;;;;;10.57;5.43;;;;;;;;;;8366335;28;20063;-89
2022/07/09 01:40:53;;;;;;;9.98;5.32;;;;;;;;;;8362685;28;20051;-89
2022/07/09 01:44:58;;;;;;;11.45;5.30;;;;;;;;;;8365330;28;20492;-90
2022/07/09 01:49:04;;;;;;;11.48;5.82;;;;;;;;;;8365667;28;20044;-91
2022/07/09 01:53:11;;;;;;;12.93;5.43;;;;;;;;;;8363899;28;20143;-90
2022/07/09 01:57:14;;;;;;;10.25;5.90;;;;;;;;;;8353860;28;20533;-90
2022/07/09 02:01:20;;;;;;;10.75;5.55;;;;;;;;;;8394912;28;20496;-91
2022/07/09 02:05:23;;;;;;;9.18;6.47;;;;;;;;;;8370286;28;20057;-89
2022/07/09 02:09:29;;;;;;;14.98;7.28;;;;;;;;;;8388487;28;20048;-90
2022/07/09 02:13:31;;;;;;;10.93;6.47;;;;;;;;;;8385928;28;20047;-89
2022/07/09 02:17:34;;;;;;;13.60;6.43;;;;;;;;;;8378611;28;20055;-90
2022/07/09 02:21:37;;;;;;;8.63;6.57;;;;;;;;;;8373959;28;20101;-90
2022/07/09 02:25:43;;;;;;;8.77;5.80;;;;;;;;;;8376709;28;20392;-89
2022/07/09 02:29:49;;;;;;;14.30;6.05;;;;;;;;;;8372471;28;20411;-89
2022/07/09 02:33:51;;;;;;;10.20;6.20;;;;;;;;;;8360917;28;20404;-89
2022/07/09 02:37:54;;;;;;;16.50;6.95;;;;;;;;;;8374251;28;20048;-90
2022/07/09 02:41:59;;;;;;;16.30;6.80;;;;;;;;;;8375331;28;20396;-89
2022/07/09 02:46:03;;;;;;;13.45;6.90;;;;;;;;;;8378425;28;20102;-91
2022/07/09 02:50:07;;;;;;;14.05;7.18;;;;;;;;;;8380639;28;20067;-89
2022/07/09 02:54:10;;;;;;;11.50;7.10;;;;;;;;;;8359763;28;20131;-90
2022/07/09 02:58:14;;;;;;;11.55;6.38;;;;;;;;;;8372922;28;20106;-89
2022/07/09 03:02:17;;;;;;;13.23;6.68;;;;;;;;;;8387536;28;20487;-90
2022/07/09 03:06:20;;;;;;;13.98;6.80;;;;;;;;;;8367067;28;20154;-91
2022/07/09 03:10:23;;;;;;;14.80;7.22;;;;;;;;;;8386259;28;20044;-89
2022/07/09 03:14:27;;;;;;;13.15;6.53;;;;;;;;;;8387146;28;20048;-90
2022/07/09 03:18:30;;;;;;;9.15;5.32;;;;;;;;;;8377982;28;20466;-89
2022/07/09 03:22:32;;;;;;;11.27;6.22;;;;;;;;;;8379140;28;20129;-91
2022/07/09 03:26:35;;;;;;;9.63;5.78;;;;;;;;;;8373522;28;20058;-90
2022/07/09 03:30:39;;;;;;;9.48;7.57;;;;;;;;;;8376139;28;20116;-90
2022/07/09 03:34:42;;;;;;;15.05;7.85;;;;;;;;;;8379481;28;20052;-88
2022/07/09 03:38:45;;;;;;;13.82;6.25;;;;;;;;;;8383826;28;20052;-89
2022/07/09 03:42:47;;;;;;;14.25;5.70;;;;;;;;;;8391079;28;20158;-87
2022/07/09 03:46:51;;;;;;;10.98;6.15;;;;;;;;;;8385602;28;20515;-89
2022/07/09 03:50:57;;;;;;;10.45;7.03;;;;;;;;;;8379538;28;20048;-89
2022/07/09 03:55:02;;;;;;;12.48;6.82;;;;;;;;;;8361324;28;20053;-90
2022/07/09 03:59:06;;;;;;;11.38;6.57;;;;;;;;;;8361146;28;20057;-89
2022/07/09 04:03:16;;;;;;;17.25;6.70;;;;;;;;;;8364663;28;20071;-90
2022/07/09 04:07:20;;;;;;;15.00;6.80;;;;;;;;;;8376530;28;20107;-91
2022/07/09 04:11:22;;;;;;;11.30;7.75;;;;;;;;;;8367597;28;20058;-90
2022/07/09 04:15:25;;;;;;;13.15;7.50;;;;;;;;;;8392173;28;20057;-89
2022/07/09 04:19:29;;;;;;;10.07;5.75;;;;;;;;;;8383267;28;20071;-89
2022/07/09 04:23:32;;;;;;;8.77;5.88;;;;;;;;;;8373173;28;20518;-90
2022/07/09 04:27:38;;;;;;;11.27;6.43;;;;;;;;;;8389737;28;20048;-90
2022/07/09 04:31:42;;;;;;;9.55;5.70;;;;;;;;;;8367839;28;20484;-89
2022/07/09 04:35:49;;;;;;;12.02;5.93;;;;;;;;;;8389411;28;20060;-89
2022/07/09 04:39:55;;;;;;;9.10;5.90;;;;;;;;;;8356157;28;20045;-90
2022/07/09 04:43:58;;;;;;;11.95;6.30;;;;;;;;;;8370992;28;20049;-89
2022/07/09 04:48:01;;;;;;;15.13;6.57;;;;;;;;;;8376351;28;20487;-90
2022/07/09 04:52:06;;;;;;;10.82;6.00;;;;;;;;;;8386341;28;20464;-88
2022/07/09 04:56:12;;;;;;;10.05;5.43;;;;;;;;;;8387463;28;20067;-89
2022/07/09 05:00:18;;;;;;;11.07;5.53;;;;;;;;;;8370426;28;20049;-89
2022/07/09 05:04:21;;;;;;;18.08;7.50;;;;;;;;;;8368465;28;20048;-90
2022/07/09 05:08:25;;;;;;;16.50;7.22;;;;;;;;;;8370106;28;20096;-89
2022/07/09 05:12:29;;;;;;;11.82;7.03;;;;;;;;;;8384510;28;20036;-94
2022/07/09 05:16:32;;;;;;;18.40;7.70;;;;;;;;;;8377867;28;20127;-86
2022/07/09 05:20:35;;;;;;;17.08;7.30;;;;;;;;;;8376357;28;20032;-94
2022/07/09 05:24:40;;;;;;;18.35;7.50;;;;;;;;;;8386800;28;20048;-88
2022/07/09 05:28:44;;;;;;;11.00;5.80;;;;;;;;;;8378215;28;20517;-89
2022/07/09 05:32:48;;;;;;;12.73;6.55;;;;;;;;;;8375446;28;20056;-88
2022/07/09 05:36:52;;;;;;;10.38;6.05;;;;;;;;;;8389170;28;20045;-92
2022/07/09 05:40:59;;;;;;;12.48;6.80;;;;;;;;;;8388820;28;20033;-86
2022/07/09 05:45:02;;;;;;;10.23;5.82;;;;;;;;;;8391970;28;20059;-87
2022/07/09 05:49:07;;;;;;;11.38;7.18;;;;;;;;;;8392052;28;20045;-87
2022/07/09 05:53:10;;;;;;;13.00;6.65;;;;;;;;;;8398161;28;20037;-90
2022/07/09 05:57:15;;;;;;;10.60;6.40;;;;;;;;;;8373898;28;20082;-88
2022/07/09 06:01:18;;;;;;;10.82;5.97;;;;;;;;;;8394800;28;20049;-87
2022/07/09 06:05:24;;;;;;;9.60;5.85;;;;;;;;;;8376343;28;20044;-92
2022/07/09 06:09:34;;;;;;;38.03;14.73;;;;;;;;;;8377589;28;20416;-89
2022/07/09 06:13:46;;;;;;;10.27;6.05;;;;;;;;;;8393826;28;20079;-90
2022/07/09 06:17:55;;;;;;;10.02;6.30;;;;;;;;;;8382894;28;20093;-88
2022/07/09 06:22:13;;;;;;;10.43;5.93;;;;;;;;;;8382664;28;20052;-90
2022/07/09 06:26:30;;;;;;;8.85;6.10;;;;;;;;;;8385888;28;20124;-92
2022/07/09 06:30:35;;;;;;;12.63;5.70;;;;;;;;;;8394213;28;20044;-86
2022/07/09 06:34:38;;;;;;;10.38;4.40;;;;;;;;;;8390743;28;20047;-94
2022/07/09 06:42:58;;;;;;;7.43;3.97;;;;;;;;;;8377595;28;20047;-94
2022/07/09 06:47:02;;;;;;;8.60;3.70;;;;;;;;;;8389759;28;20095;-94
2022/07/09 06:51:16;;;;;;;4.80;3.15;;;;;;;;;;8386507;28;20052;-96
2022/07/09 06:55:19;;;;;;;9.85;3.95;;;;;;;;;;8389896;28;20127;-94
2022/07/09 07:20:33;;;;;;;8.93;3.28;;;;;;;;;;8489363;22;20049;-92
2022/07/09 07:24:37;;;;;;;7.07;3.78;;;;;;;;;;8415067;28;20051;-87
2022/07/09 07:28:41;;;;;;;5.95;2.70;;;;;;;;;;8419464;28;20047;-95
2022/07/09 07:32:45;;;;;;;5.85;3.00;;;;;;;;;;8414607;28;20048;-89
2022/07/09 07:36:51;;;;;;;6.93;2.97;;;;;;;;;;8414277;28;20054;-87
2022/07/09 07:40:55;;;;;;;5.40;2.30;;;;;;;;;;8407726;28;20040;-90
2022/07/09 07:45:00;;;;;;;3.95;2.10;;;;;;;;;;8399900;28;20048;-86
2022/07/09 07:49:04;;;;;;;5.03;2.70;;;;;;;;;;8410033;28;20480;-89
2022/07/09 07:53:11;;;;;;;8.80;2.67;;;;;;;;;;8418903;28;20074;-88
2022/07/09 07:57:15;;;;;;;4.78;2.17;;;;;;;;;;8416190;28;20035;-90
2022/07/09 08:01:18;;;;;;;2.67;1.80;;;;;;;;;;8408975;28;20048;-93
2022/07/09 08:05:22;;;;;;;3.78;2.22;;;;;;;;;;8408864;28;20044;-86
2022/07/09 08:09:27;;;;;;;4.75;2.30;;;;;;;;;;8415918;28;20059;-88
2022/07/09 08:13:31;;;;;;;4.25;2.20;;;;;;;;;;8408637;28;20040;-88
2022/07/09 08:17:34;;;;;;;4.70;1.90;;;;;;;;;;8416778;28;20052;-86
2022/07/09 08:21:38;;;;;;;3.55;1.80;;;;;;;;;;8411749;28;20128;-88
2022/07/09 08:25:45;;;;;;;3.08;1.50;;;;;;;;;;8412063;28;20405;-86
2022/07/09 08:29:50;;;;;;;3.45;1.67;;;;;;;;;;8424372;28;20040;-88
2022/07/09 08:33:53;;;;;;;3.15;1.27;;;;;;;;;;8410913;28;20123;-86
2022/07/09 08:37:56;;;;;;;2.75;1.20;;;;;;;;;;8406834;28;20120;-88
2022/07/09 08:42:01;;;;;;;3.20;1.92;;;;;;;;;;8406968;28;20044;-86
2022/07/09 08:46:05;;;;;;;2.70;1.40;;;;;;;;;;8401731;28;20491;-86
2022/07/09 08:50:10;;;;;;;3.13;1.40;;;;;;;;;;8415193;28;20048;-88
2022/07/09 08:54:16;;;;;;;6.85;1.52;;;;;;;;;;8414109;28;20057;-87
2022/07/09 08:58:21;;;;;;;2.28;1.17;;;;;;;;;;8409056;28;20388;-90
2022/07/09 09:02:26;;;;;;;2.03;1.20;;;;;;;;;;8409777;28;20047;-88
2022/07/09 09:06:30;;;;;;;3.05;1.20;;;;;;;;;;8404280;28;20055;-89
2022/07/09 09:10:34;;;;;;;2.80;1.13;;;;;;;;;;8403416;28;20049;-87
2022/07/09 09:14:39;;;;;;;2.33;1.33;;;;;;;;;;8416628;28;20039;-86
2022/07/09 09:18:44;;;;;;;1.70;1.20;;;;;;;;;;8410946;28;20049;-95
2022/07/09 09:22:52;;;;;;;2.55;1.08;;;;;;;;;;8411994;28;20044;-86
2022/07/09 09:27:01;;;;;;;2.88;1.30;;;;;;;;;;8412117;28;20491;-89
2022/07/09 09:31:23;;;;;;;2.83;1.50;;;;;;;;;;8415231;28;20067;-85
2022/07/09 09:35:27;;;;;;;4.38;1.20;;;;;;;;;;8416038;28;20045;-86
2022/07/09 09:39:31;;;;;;;5.53;1.30;;;;;;;;;;8403771;28;20064;-86
2022/07/09 09:43:38;;;;;;;7.07;1.58;;;;;;;;;;8402451;28;20041;-91
2022/07/09 09:47:48;;;;;;;2.45;1.23;;;;;;;;;;8412401;28;20048;-88
2022/07/09 09:52:04;;;;;;;3.45;1.38;;;;;;;;;;8420748;28;20040;-86
2022/07/09 09:56:10;;;;;;;1.50;1.02;;;;;;;;;;8408166;28;20403;-87
2022/07/09 10:00:15;;;;;;;2.00;1.23;;;;;;;;;;8405713;28;20091;-88
2022/07/09 10:04:21;;;;;;;3.28;1.27;;;;;;;;;;8403867;28;20110;-86
2022/07/09 10:08:26;;;;;;;2.20;1.30;;;;;;;;;;8399836;28;20499;-89
2022/07/09 10:12:32;;;;;;;2.97;1.40;;;;;;;;;;8422679;28;20040;-86
2022/07/09 10:16:40;;;;;;;2.35;1.30;;;;;;;;;;8415750;28;20032;-91
2022/07/09 10:20:47;;;;;;;2.08;1.48;;;;;;;;;;8409049;28;20135;-88
2022/07/09 10:24:53;;;;;;;3.45;1.90;;;;;;;;;;8405034;28;20059;-96
2022/07/09 10:28:57;;;;;;;3.80;1.40;;;;;;;;;;8411362;28;20056;-87
2022/07/09 10:33:06;;;;;;;4.38;1.73;;;;;;;;;;8407847;28;20047;-96
2022/07/09 10:37:12;;;;;;;3.03;1.40;;;;;;;;;;8405798;28;20044;-93
2022/07/09 10:41:24;;;;;;;3.20;1.40;;;;;;;;;;8402771;28;20033;-92
2022/07/09 10:45:37;;;;;;;3.90;1.60;;;;;;;;;;8433892;28;20523;-89
2022/07/09 10:49:41;;;;;;;3.47;1.50;;;;;;;;;;8412067;28;20052;-91
2022/07/09 10:53:45;;;;;;;4.15;1.70;;;;;;;;;;8411884;28;20472;-87
2022/07/09 10:57:52;;;;;;;4.13;1.70;;;;;;;;;;8411905;28;20062;-85
2022/07/09 11:01:55;;;;;;;3.10;1.60;;;;;;;;;;8404338;28;20044;-85
2022/07/09 11:06:00;;;;;;;2.10;1.52;;;;;;;;;;8400310;28;20142;-86
2022/07/09 11:10:06;;;;;;;1.77;1.50;;;;;;;;;;8419657;28;20102;-85
2022/07/09 11:14:13;;;;;;;4.57;1.92;;;;;;;;;;8421046;28;20044;-85
2022/07/09 11:18:16;;;;;;;5.50;1.70;;;;;;;;;;8413671;28;20496;-85
2022/07/09 11:22:20;;;;;;;4.75;1.60;;;;;;;;;;8414737;28;20067;-85
2022/07/09 11:26:26;;;;;;;2.80;2.05;;;;;;;;;;8412768;28;20050;-84
2022/07/09 11:30:32;;;;;;;2.92;1.85;;;;;;;;;;8445823;28;20518;-85
2022/07/09 11:34:36;;;;;;;5.57;2.08;;;;;;;;;;8431977;28;20044;-85
2022/07/09 11:38:49;;;;;;;2.33;1.80;;;;;;;;;;8425861;28;20047;-86
2022/07/09 11:42:54;;;;;;;6.00;2.80;;;;;;;;;;8422709;28;20048;-85
2022/07/09 11:47:07;;;;;;;5.03;1.50;;;;;;;;;;8423868;28;20036;-86
2022/07/09 11:51:14;;;;;;;7.00;3.17;;;;;;;;;;8431084;28;20044;-85
2022/07/09 11:55:21;;;;;;;9.57;3.42;;;;;;;;;;8419277;28;20041;-94
2022/07/09 11:59:33;;;;;;;4.20;2.00;;;;;;;;;;8417854;28;20047;-91
2022/07/09 12:03:39;;;;;;;3.55;1.88;;;;;;;;;;8411927;28;20052;-86
2022/07/09 12:07:56;;;;;;;6.05;2.70;;;;;;;;;;8417283;28;20052;-86
2022/07/09 12:12:02;;;;;;;7.43;3.05;;;;;;;;;;8424604;28;20034;-89
2022/07/09 12:16:12;;;;;;;4.45;1.90;;;;;;;;;;8425463;28;20062;-86
2022/07/09 12:20:15;;;;;;;4.90;2.60;;;;;;;;;;8411712;28;20053;-87
2022/07/09 12:24:21;;;;;;;5.25;2.35;;;;;;;;;;8411735;28;20066;-87
2022/07/09 12:28:28;;;;;;;4.72;2.38;;;;;;;;;;8419419;28;20040;-87
2022/07/09 12:32:42;;;;;;;8.32;4.25;;;;;;;;;;8408905;28;20056;-96
2022/07/09 12:37:01;;;;;;;5.03;2.20;;;;;;;;;;8422073;28;20488;-86
2022/07/09 12:41:18;;;;;;;8.10;3.85;;;;;;;;;;8414835;28;20047;-85
2022/07/09 12:45:23;;;;;;;6.95;2.67;;;;;;;;;;8429650;28;20044;-86
2022/07/09 12:49:32;;;;;;;14.55;8.40;;;;;;;;;;8423189;28;20059;-89
2022/07/09 12:53:36;;;;;;;9.77;4.85;;;;;;;;;;8415057;28;20492;-87
2022/07/09 12:57:41;;;;;;;9.55;5.82;;;;;;;;;;8410524;28;20476;-89
2022/07/09 13:01:45;;;;;;;4.10;2.17;;;;;;;;;;8406334;28;20476;-87
2022/07/09 13:05:52;;;;;;;5.85;3.65;;;;;;;;;;8416152;28;20044;-89
2022/07/09 13:09:56;;;;;;;11.07;4.90;;;;;;;;;;8421205;28;20045;-85
2022/07/09 13:14:01;;;;;;;7.68;3.63;;;;;;;;;;8415958;28;20048;-88
2022/07/09 13:18:07;;;;;;;4.07;2.05;;;;;;;;;;8418836;28;20052;-88
2022/07/09 13:22:16;;;;;;;10.98;3.47;;;;;;;;;;8414125;28;20494;-87
2022/07/09 13:26:20;;;;;;;3.40;2.20;;;;;;;;;;8407650;28;20051;-89
2022/07/09 13:30:23;;;;;;;3.85;2.60;;;;;;;;;;8423042;28;20412;-86
2022/07/09 13:34:27;;;;;;;7.53;3.80;;;;;;;;;;8410958;28;20465;-86
2022/07/09 13:38:33;;;;;;;11.85;4.35;;;;;;;;;;8410753;28;20052;-85
2022/07/09 13:42:40;;;;;;;5.25;2.50;;;;;;;;;;8413949;28;20040;-87
2022/07/09 13:46:44;;;;;;;4.88;2.50;;;;;;;;;;8414717;28;20127;-89
2022/07/09 13:50:47;;;;;;;6.28;2.50;;;;;;;;;;8415743;28;20079;-86
2022/07/09 13:54:52;;;;;;;5.13;2.40;;;;;;;;;;8406995;28;20104;-94
2022/07/09 14:03:35;;;;;;;7.25;3.22;;;;;;;;;;8396528;28;20500;-88
2022/07/09 14:07:41;;;;;;;9.07;2.55;;;;;;;;;;8395093;28;20056;-89
2022/07/09 14:11:47;;;;;;;9.30;2.97;;;;;;;;;;8395803;28;20040;-88
2022/07/09 14:15:52;;;;;;;11.52;2.75;;;;;;;;;;8397241;28;20545;-87
2022/07/09 14:19:58;;;;;;;5.22;2.35;;;;;;;;;;8397532;28;20041;-90
2022/07/09 14:24:12;;;;;;;6.15;1.90;;;;;;;;;;8392932;28;20067;-92
2022/07/09 14:28:20;;;;;;;3.72;1.90;;;;;;;;;;8389404;28;20047;-86
2022/07/09 14:32:26;;;;;;;4.68;2.00;;;;;;;;;;8398136;28;20143;-90
2022/07/09 14:36:31;;;;;;;4.40;2.15;;;;;;;;;;8398815;28;20072;-91
2022/07/09 14:40:37;;;;;;;7.47;2.20;;;;;;;;;;8400129;28;20037;-93
2022/07/09 14:44:43;;;;;;;4.38;1.80;;;;;;;;;;8398698;28;20221;-95
2022/07/09 14:48:47;;;;;;;6.40;1.88;;;;;;;;;;8399776;28;20040;-94
2022/07/09 14:52:50;;;;;;;4.57;1.80;;;;;;;;;;8399108;28;20045;-89
2022/07/09 14:56:55;;;;;;;9.13;2.67;;;;;;;;;;8399055;28;20045;-87
2022/07/09 15:01:00;;;;;;;3.85;1.88;;;;;;;;;;8394160;28;20056;-85
2022/07/09 15:05:05;;;;;;;3.30;1.83;;;;;;;;;;8394957;28;20404;-95
2022/07/09 15:09:08;;;;;;;4.50;1.90;;;;;;;;;;8399990;28;20041;-87
2022/07/09 15:13:14;;;;;;;5.53;1.85;;;;;;;;;;8397115;28;20072;-87
2022/07/09 15:17:19;;;;;;;4.13;1.90;;;;;;;;;;8397822;28;20048;-87
2022/07/09 15:21:29;;;;;;;2.97;1.73;;;;;;;;;;8398209;28;20052;-91
2022/07/09 15:25:32;;;;;;;2.28;1.70;;;;;;;;;;8397611;28;20041;-93
2022/07/09 15:29:36;;;;;;;3.22;1.90;;;;;;;;;;8396149;28;20056;-89
2022/07/09 15:33:41;;;;;;;3.00;1.83;;;;;;;;;;8396761;28;20041;-88
2022/07/09 15:37:45;;;;;;;3.92;2.20;;;;;;;;;;8396465;28;20499;-93
2022/07/09 15:41:50;;;;;;;6.43;2.13;;;;;;;;;;8397678;28;20049;-90
2022/07/09 15:45:55;;;;;;;4.78;2.40;;;;;;;;;;8398671;28;20048;-91
2022/07/09 15:50:05;;;;;;;6.15;2.50;;;;;;;;;;8396858;28;20427;-94
2022/07/09 15:54:12;;;;;;;6.25;2.40;;;;;;;;;;8398581;28;20044;-91
2022/07/09 15:58:15;;;;;;;5.78;2.30;;;;;;;;;;8401400;28;20503;-92
2022/07/09 16:02:20;;;;;;;4.50;2.13;;;;;;;;;;8402391;28;20515;-89
2022/07/09 16:06:28;;;;;;;5.10;2.20;;;;;;;;;;8406280;28;20044;-95
2022/07/09 16:10:32;;;;;;;4.40;2.50;;;;;;;;;;8403917;28;20044;-93
2022/07/09 16:14:35;;;;;;;7.20;2.38;;;;;;;;;;8403594;28;20040;-95
2022/07/09 16:18:39;;;;;;;5.47;2.55;;;;;;;;;;8405901;28;20531;-96
2022/07/09 16:22:49;;;;;;;7.65;3.50;;;;;;;;;;8407016;28;20080;-95
2022/07/09 16:26:56;;;;;;;7.82;3.50;;;;;;;;;;8398194;28;20080;-94
2022/07/09 16:31:01;;;;;;;3.75;2.35;;;;;;;;;;8406699;28;20044;-88
2022/07/09 16:35:08;;;;;;;10.52;3.40;;;;;;;;;;8405799;28;20055;-96
2022/07/09 16:39:18;;;;;;;6.22;2.53;;;;;;;;;;8414091;28;20040;-91
2022/07/09 16:43:32;;;;;;;5.93;2.83;;;;;;;;;;8417541;28;20052;-91
2022/07/09 16:47:39;;;;;;;4.57;2.45;;;;;;;;;;8411612;28;20396;-95
2022/07/09 16:51:48;;;;;;;4.93;2.60;;;;;;;;;;8406844;28;20044;-90
2022/07/09 16:55:59;;;;;;;6.20;2.40;;;;;;;;;;8408524;28;20047;-88
2022/07/09 17:00:07;;;;;;;8.57;2.67;;;;;;;;;;8405743;28;20052;-86
2022/07/09 17:04:16;;;;;;;8.10;2.45;;;;;;;;;;8398977;28;20036;-86
2022/07/09 17:08:21;;;;;;;5.45;2.95;;;;;;;;;;8400768;28;20132;-87
2022/07/09 17:12:25;;;;;;;7.88;3.53;;;;;;;;;;8406631;28;20085;-90
2022/07/09 17:16:31;;;;;;;7.43;4.10;;;;;;;;;;8395149;28;20366;-89
2022/07/09 17:20:36;;;;;;;7.65;4.22;;;;;;;;;;8406485;28;20063;-95
2022/07/09 17:24:41;;;;;;;13.57;4.43;;;;;;;;;;8401389;28;20047;-88
2022/07/09 17:28:46;;;;;;;8.98;3.88;;;;;;;;;;8409071;28;20488;-86
2022/07/09 17:33:01;;;;;;;6.72;2.90;;;;;;;;;;8405720;28;20048;-91
2022/07/09 17:37:07;;;;;;;10.57;3.72;;;;;;;;;;8420539;28;20111;-87
2022/07/09 17:41:13;;;;;;;6.57;3.63;;;;;;;;;;8410597;28;20087;-92
2022/07/09 17:45:21;;;;;;;6.97;3.65;;;;;;;;;;8408691;28;20051;-89
2022/07/09 17:49:28;;;;;;;9.60;2.97;;;;;;;;;;8406834;28;20052;-88
2022/07/09 17:53:35;;;;;;;7.68;3.17;;;;;;;;;;8402115;28;20114;-89
2022/07/09 17:57:52;;;;;;;10.95;3.28;;;;;;;;;;8405773;28;20458;-87
2022/07/09 18:02:03;;;;;;;7.68;2.88;;;;;;;;;;8404045;28;20110;-96
2022/07/09 18:06:08;;;;;;;4.22;2.63;;;;;;;;;;8402839;28;20044;-90
2022/07/09 18:10:14;;;;;;;7.50;3.05;;;;;;;;;;8403264;28;20044;-86
2022/07/09 18:14:20;;;;;;;3.40;2.40;;;;;;;;;;8400759;28;20051;-90
2022/07/09 18:18:25;;;;;;;6.88;3.10;;;;;;;;;;8402798;28;20124;-88
2022/07/09 18:22:29;;;;;;;7.28;3.15;;;;;;;;;;8401253;28;20044;-95
2022/07/09 18:26:33;;;;;;;6.95;2.95;;;;;;;;;;8401323;28;20499;-96
2022/07/09 18:30:39;;;;;;;7.22;3.78;;;;;;;;;;8400294;28;20105;-95
2022/07/09 18:34:45;;;;;;;9.77;4.18;;;;;;;;;;8400599;28;20045;-95
2022/07/09 18:38:53;;;;;;;7.32;3.72;;;;;;;;;;8389912;28;20595;-91
2022/07/09 18:43:08;;;;;;;12.13;4.70;;;;;;;;;;8397378;28;20048;-85
2022/07/09 18:47:26;;;;;;;14.32;5.03;;;;;;;;;;8398932;28;20040;-84
2022/07/09 18:51:38;;;;;;;13.88;4.88;;;;;;;;;;8397715;28;20048;-84
2022/07/09 18:55:44;;;;;;;23.20;6.10;;;;;;;;;;8399500;28;20538;-86
2022/07/09 18:59:49;;;;;;;14.05;5.18;;;;;;;;;;8396919;28;20123;-84
2022/07/09 19:03:53;;;;;;;13.20;5.30;;;;;;;;;;8397728;28;20045;-94
2022/07/09 19:07:58;;;;;;;13.05;5.75;;;;;;;;;;8397448;28;20110;-84
2022/07/09 19:12:05;;;;;;;10.23;4.80;;;;;;;;;;8397229;28;20060;-84
2022/07/09 19:16:12;;;;;;;9.93;4.70;;;;;;;;;;8396954;28;20049;-84
2022/07/09 19:20:16;;;;;;;18.10;5.72;;;;;;;;;;8397260;28;20044;-85
2022/07/09 19:24:22;;;;;;;13.05;5.35;;;;;;;;;;8396885;28;20129;-84
2022/07/09 19:28:27;;;;;;;7.75;4.55;;;;;;;;;;8396577;28;20047;-96
2022/07/09 19:36:53;;;;;;;12.27;4.25;;;;;;;;;;8402953;28;20060;-86
2022/07/09 19:40:58;;;;;;;6.07;3.85;;;;;;;;;;8403194;28;20098;-84
2022/07/09 19:45:03;;;;;;;8.13;4.20;;;;;;;;;;8403019;28;20044;-84
2022/07/09 19:49:09;;;;;;;12.32;4.28;;;;;;;;;;8397798;28;20052;-83
2022/07/09 19:53:14;;;;;;;9.65;4.50;;;;;;;;;;8402219;28;20054;-94
2022/07/09 19:57:22;;;;;;;6.20;3.63;;;;;;;;;;8402322;28;20068;-91
2022/07/09 20:01:26;;;;;;;11.13;4.75;;;;;;;;;;8401935;28;20048;-91
2022/07/09 20:05:31;;;;;;;14.60;4.53;;;;;;;;;;8402506;28;20040;-95
2022/07/09 20:09:36;;;;;;;7.07;3.60;;;;;;;;;;8401901;28;20399;-95
2022/07/09 20:13:59;;;;;;;10.57;4.95;;;;;;;;;;8402372;28;20398;-84
2022/07/09 20:18:31;;;;;;;7.47;3.70;;;;;;;;;;8392316;28;20044;-83
2022/07/09 20:22:38;;;;;;;8.40;3.72;;;;;;;;;;8393253;28;20049;-84
2022/07/09 20:26:44;;;;;;;9.82;4.47;;;;;;;;;;8398894;28;20060;-84
2022/07/09 20:30:54;;;;;;;7.28;3.72;;;;;;;;;;8391591;28;20443;-89
2022/07/09 20:35:11;;;;;;;10.38;4.20;;;;;;;;;;8400164;28;20040;-95
2022/07/09 20:39:19;;;;;;;11.75;4.68;;;;;;;;;;8397117;28;20048;-94
2022/07/09 20:43:28;;;;;;;8.35;4.80;;;;;;;;;;8397638;28;20126;-94
2022/07/09 20:47:46;;;;;;;7.32;5.00;;;;;;;;;;8398242;28;20116;-93
2022/07/09 20:52:00;;;;;;;9.40;4.20;;;;;;;;;;8396217;28;20041;-86
2022/07/09 20:56:04;;;;;;;7.70;3.53;;;;;;;;;;8396779;28;20048;-92
2022/07/09 21:00:10;;;;;;;8.27;3.72;;;;;;;;;;8397402;28;20515;-93
2022/07/09 21:04:18;;;;;;;7.55;4.68;;;;;;;;;;8396805;28;20411;-93
2022/07/09 21:08:23;;;;;;;6.50;4.03;;;;;;;;;;8397019;28;20064;-85
2022/07/09 21:12:26;;;;;;;7.57;4.35;;;;;;;;;;8398296;28;20036;-87
2022/07/09 21:20:51;;;;;;;7.10;4.90;;;;;;;;;;8396959;28;20074;-85
2022/07/09 21:24:56;;;;;;;8.90;4.53;;;;;;;;;;8396856;28;20052;-85
2022/07/09 21:28:58;;;;;;;9.43;4.95;;;;;;;;;;8393950;28;20125;-88
2022/07/09 21:33:05;;;;;;;8.13;5.15;;;;;;;;;;8394928;28;20044;-85
2022/07/09 21:37:11;;;;;;;10.48;5.28;;;;;;;;;;8396922;28;20160;-87
2022/07/09 21:41:15;;;;;;;8.77;4.80;;;;;;;;;;8395513;28;20044;-87
2022/07/09 21:45:19;;;;;;;10.13;4.97;;;;;;;;;;8397260;28;20098;-90
2022/07/09 21:49:23;;;;;;;7.15;4.25;;;;;;;;;;8401007;28;20056;-87
2022/07/09 21:53:28;;;;;;;9.73;5.22;;;;;;;;;;8396638;28;20480;-87
2022/07/09 21:57:31;;;;;;;9.65;5.22;;;;;;;;;;8395640;28;20068;-89
2022/07/09 22:01:34;;;;;;;12.77;5.63;;;;;;;;;;8393381;28;20049;-87
2022/07/09 22:05:37;;;;;;;13.95;5.20;;;;;;;;;;8395454;28;20045;-88
2022/07/09 22:09:41;;;;;;;9.68;5.45;;;;;;;;;;8393163;28;20047;-87
2022/07/09 22:13:46;;;;;;;8.68;5.25;;;;;;;;;;8395018;28;20097;-88
2022/07/09 22:17:49;;;;;;;8.93;4.80;;;;;;;;;;8417085;28;20111;-87
2022/07/09 22:21:52;;;;;;;7.80;5.13;;;;;;;;;;8435062;28;20090;-87
2022/07/09 22:25:56;;;;;;;8.15;4.50;;;;;;;;;;8433417;28;20060;-87
2022/07/09 22:29:59;;;;;;;9.40;5.38;;;;;;;;;;8420183;28;20033;-86
2022/07/09 22:34:02;;;;;;;10.85;5.60;;;;;;;;;;8396719;28;20229;-86
2022/07/09 22:38:05;;;;;;;10.57;4.90;;;;;;;;;;8399137;28;20049;-86
2022/07/09 22:42:09;;;;;;;7.57;4.90;;;;;;;;;;8399463;28;20063;-86
2022/07/09 22:46:12;;;;;;;9.05;5.35;;;;;;;;;;8397893;28;20053;-94
2022/07/09 22:50:14;;;;;;;10.27;5.03;;;;;;;;;;8395964;28;20056;-86
2022/07/09 22:54:17;;;;;;;8.90;4.88;;;;;;;;;;8392271;28;20040;-86
2022/07/09 22:58:21;;;;;;;8.40;4.93;;;;;;;;;;8393204;28;20041;-88
2022/07/09 23:02:24;;;;;;;10.45;5.28;;;;;;;;;;8392887;28;20078;-86
2022/07/09 23:06:29;;;;;;;11.40;6.10;;;;;;;;;;8396811;28;20554;-86
2022/07/09 23:10:32;;;;;;;10.55;5.18;;;;;;;;;;8400977;28;20044;-87
2022/07/09 23:14:36;;;;;;;9.73;4.90;;;;;;;;;;8400485;28;20036;-86
2022/07/09 23:18:39;;;;;;;9.02;5.13;;;;;;;;;;8401246;28;20547;-86
2022/07/09 23:22:42;;;;;;;9.85;6.00;;;;;;;;;;8402337;28;20056;-86
2022/07/09 23:26:45;;;;;;;10.90;5.88;;;;;;;;;;8400868;28;20185;-85
2022/07/09 23:30:52;;;;;;;6.97;3.65;;;;;;;;;;8399843;28;20061;-88
2022/07/09 23:34:55;;;;;;;7.63;4.10;;;;;;;;;;8398383;28;20052;-86
2022/07/09 23:38:58;;;;;;;8.45;4.70;;;;;;;;;;8400129;28;20196;-88
2022/07/09 23:43:03;;;;;;;11.23;5.03;;;;;;;;;;8399427;28;20056;-94
2022/07/09 23:47:08;;;;;;;9.80;4.78;;;;;;;;;;8400589;28;20086;-88
2022/07/09 23:51:14;;;;;;;10.80;4.90;;;;;;;;;;8382090;28;20233;-94
2022/07/09 23:55:19;;;;;;;8.52;4.93;;;;;;;;;;8400617;28;20049;-87
2022/07/09 23:59:23;;;;;;;9.18;4.60;;;;;;;;;;8398709;28;20906;-86
